Atherton, Queensland

1:26 AM AEST on October 25, 2014 (GMT +1000)
Jaques Coffee Plantation | Change Station
CLOSE
Current Station
Personal Weather Station
Location: Mareeba, QLD
Elevation: 1316 ft
Nearby Weather Stations

Elev 1316 ft 16.96 °S, 145.44 °E | Updated 1 second ago

Partly Cloudy
Partly Cloudy
59.9 °F
Feels Like 59.9 °F
N
0.0
Wind Variable Wind from SW
Gusts 0.0 mph

Today
High -- | Low -- °F
--% Chance of Precip.
Yesterday
High -- | Low -- °F
Precip. -- in
5:43 AM 6:21 PM
New Moon, 1% visible
Pressure 30.04 in
Visibility 6.2 miles
Clouds Few 2600 ft
Dew Point 59 °F
Humidity 96%
Rainfall 0.00 in
Snow Depth Not available.
UV 0.0 out of 12
Pollen Not available.
Air Quality Not available.
Flu Activity Not available.
METAR YBCS 241500Z 16008KT 9999 FEW026 22/17 Q1017 NOSIG

More Conditions Fewer Conditions

Pressure 30.04 in
Visibility 6.2 miles
Clouds Few 2600 ft
Dew Point 59 °F
Humidity 96%
Rainfall 0.00 in
Snow Depth Not available.
UV 0.0 out of 12
Pollen Not available.
Air Quality Not available.
Flu Activity Not available.
METAR YBCS 241500Z 16008KT 9999 FEW026 22/17 Q1017 NOSIG

More Conditions Fewer Conditions

10-Day Weather Forecast

Almanac

Astronomy

Oct. 25, 2014 Rise Set
Actual Time 5:43 AM AEST 6:21 PM AEST
Civil Twilight 5:21 AM AEST 6:43 PM AEST
Nautical Twilight 4:55 AM AEST 7:09 PM AEST
Astronomical Twilight 4:28 AM AEST 7:35 PM AEST
Moon 6:31 AM AEST (10/25) 7:33 PM AEST (10/25)
Length of Visible Light 13h 21m
Length of Day
12h 37m
Tomorrow will be 0m 56s longer.
New Moon, 1% of the Moon is Illuminated
Oct 24
New Moon
Oct 30
First Quarter
Nov 6
Full
Nov 14
Last Quarter
Nov 22
New

Yesterday's Extremes

Country Highs Country Lows

Community

WunderPhotos

Upload Photos

1,764,588 photos uploaded!

WunderBlogs® & News

By Dr. Jeff Masters
Director of Meteorology, Weather Underground
By Kari Strenfel
Meteorologist, Weather Underground
By Christopher C. Burt
Weather Historian, Weather Underground
October 24, 2014
October 24, 2014
October 24, 2014

Nearby

Snow Depth

Not available.

Earthquake Activity

City Distance Mag. Time & Date
No recent earthquake activity has been reported nearby.
Minimum magnitude displayed is 2.5.

Coastal Water Temperatures

Place Temperature
No Stations Reporting

Nearby Weather Stations